Cleveland, OH (44143)

9:46 AM EST on December 20, 2014 (GMT -0500)
Bob's Euclid weather station | Change Station
CLOSE
Current Station
Personal Weather Station
Location: Euclid, OH
Elevation: 833 ft
Nearby Weather Stations

Elev 833 ft 41.57 °N, 81.52 °W | Updated 1 second ago

Overcast
Overcast
30.1 °F
Feels Like 30 °F
N
0.0
Wind Variable Wind from SSW
Gusts 0.0 mph

Today
High -- | Low -- °F
--% Chance of Precip.
Yesterday
High -- | Low -- °F
Precip. -- in
7:48 AM 4:58 PM
Waning Crescent, 3% visible
Pressure 30.29 in
Visibility 10.0 miles
Clouds Scattered Clouds 1200 ft
Overcast 2400 ft
Windchill 30 °F
Dew Point 24 °F
Humidity 79%
Rainfall 0.00 in
Snow Depth Not available.
UV 0.0 out of 12
Pollen .10 out of 12
Air Quality Not available.
Flu Activity Not available.
METAR KCGF 201345Z 17005KT 10SM SCT012 OVC024 M01/M04 A3029

More Conditions Fewer Conditions

Pressure 30.29 in
Visibility 10.0 miles
Clouds Scattered Clouds 1200 ft
Overcast 2400 ft
Windchill 30 °F
Dew Point 24 °F
Humidity 79%
Rainfall 0.00 in
Snow Depth Not available.
UV 0.0 out of 12
Pollen .10 out of 12
Air Quality Not available.
Flu Activity Not available.
METAR KCGF 201345Z 17005KT 10SM SCT012 OVC024 M01/M04 A3029

More Conditions Fewer Conditions

10-Day Weather Forecast

Almanac

Astronomy

Dec. 20, 2014 Rise Set
Actual Time
Civil Twilight
Nautical Twilight
Astronomical Twilight
Moon
Length of Visible Light
Length of Day
Tomorrow will be .
, % of the Moon is Illuminated

Today's Extremes

State Highs State Lows

Community

WunderPhotos

Upload Photos

1,779,174 photos uploaded!

WunderBlogs® & News

Nearby

Air Quality

  Air Quality AQ Index Pollutant
Not available.

Snow Depth

Station Depth Elevation

Earthquake Activity

City Distance Mag. Time & Date
Minimum magnitude displayed is 2.5.

Coastal Water Temperatures

Place Temperature

Nearby Weather Stations